sensor_id;sensor_type;location;lat;lon;timestamp;P1;durP1;ratioP1;P2;durP2;ratioP2
76332;SDS011;71254;53.010;6.508;2023-07-13T00:01:46;8.02;;;3.85;;
76332;SDS011;71254;53.010;6.508;2023-07-13T00:04:14;6.68;;;3.17;;
76332;SDS011;71254;53.010;6.508;2023-07-13T00:06:41;5.25;;;3.10;;
76332;SDS011;71254;53.010;6.508;2023-07-13T00:09:10;8.55;;;3.55;;
76332;SDS011;71254;53.010;6.508;2023-07-13T00:11:38;8.48;;;3.50;;
76332;SDS011;71254;53.010;6.508;2023-07-13T00:14:03;5.50;;;3.22;;
76332;SDS011;71254;53.010;6.508;2023-07-13T00:16:29;10.73;;;3.47;;
76332;SDS011;71254;53.010;6.508;2023-07-13T00:18:55;9.77;;;4.20;;
76332;SDS011;71254;53.010;6.508;2023-07-13T00:21:20;5.07;;;3.30;;
76332;SDS011;71254;53.010;6.508;2023-07-13T00:23:46;7.70;;;3.45;;
76332;SDS011;71254;53.010;6.508;2023-07-13T00:26:12;6.28;;;3.25;;
76332;SDS011;71254;53.010;6.508;2023-07-13T00:28:38;7.30;;;3.40;;
76332;SDS011;71254;53.010;6.508;2023-07-13T00:31:05;7.60;;;3.72;;
76332;SDS011;71254;53.010;6.508;2023-07-13T00:33:30;9.10;;;3.83;;
76332;SDS011;71254;53.010;6.508;2023-07-13T00:35:56;10.98;;;4.10;;
76332;SDS011;71254;53.010;6.508;2023-07-13T00:38:23;7.65;;;4.07;;
76332;SDS011;71254;53.010;6.508;2023-07-13T00:40:49;12.70;;;3.72;;
76332;SDS011;71254;53.010;6.508;2023-07-13T00:43:15;9.15;;;3.97;;
76332;SDS011;71254;53.010;6.508;2023-07-13T00:48:13;9.48;;;3.90;;
76332;SDS011;71254;53.010;6.508;2023-07-13T00:50:42;8.73;;;3.47;;
76332;SDS011;71254;53.010;6.508;2023-07-13T00:53:09;11.40;;;3.97;;
76332;SDS011;71254;53.010;6.508;2023-07-13T00:55:36;14.48;;;4.18;;
76332;SDS011;71254;53.010;6.508;2023-07-13T00:58:04;11.82;;;3.50;;
76332;SDS011;71254;53.010;6.508;2023-07-13T01:00:31;10.40;;;3.80;;
76332;SDS011;71254;53.010;6.508;2023-07-13T01:03:01;9.02;;;4.28;;
76332;SDS011;71254;53.010;6.508;2023-07-13T01:05:29;12.57;;;3.92;;
76332;SDS011;71254;53.010;6.508;2023-07-13T01:07:57;13.32;;;4.22;;
76332;SDS011;71254;53.010;6.508;2023-07-13T01:10:25;12.50;;;4.00;;
76332;SDS011;71254;53.010;6.508;2023-07-13T01:12:51;9.80;;;3.92;;
76332;SDS011;71254;53.010;6.508;2023-07-13T01:18:04;14.27;;;4.63;;
76332;SDS011;71254;53.010;6.508;2023-07-13T01:20:32;9.93;;;3.90;;
76332;SDS011;71254;53.010;6.508;2023-07-13T01:23:11;12.35;;;4.40;;
76332;SDS011;71254;53.010;6.508;2023-07-13T01:25:38;13.40;;;4.70;;
76332;SDS011;71254;53.010;6.508;2023-07-13T01:28:07;11.23;;;4.38;;
76332;SDS011;71254;53.010;6.508;2023-07-13T01:30:34;9.52;;;4.03;;
76332;SDS011;71254;53.010;6.508;2023-07-13T01:33:01;9.55;;;4.35;;
76332;SDS011;71254;53.010;6.508;2023-07-13T01:35:27;12.30;;;4.38;;
76332;SDS011;71254;53.010;6.508;2023-07-13T01:37:53;12.15;;;4.30;;
76332;SDS011;71254;53.010;6.508;2023-07-13T01:40:19;15.25;;;4.65;;
76332;SDS011;71254;53.010;6.508;2023-07-13T01:42:45;11.38;;;4.70;;
76332;SDS011;71254;53.010;6.508;2023-07-13T01:45:11;11.07;;;4.65;;
76332;SDS011;71254;53.010;6.508;2023-07-13T01:47:36;12.02;;;4.30;;
76332;SDS011;71254;53.010;6.508;2023-07-13T01:50:02;9.60;;;4.72;;
76332;SDS011;71254;53.010;6.508;2023-07-13T01:52:28;11.73;;;4.78;;
76332;SDS011;71254;53.010;6.508;2023-07-13T01:54:54;8.73;;;4.22;;
76332;SDS011;71254;53.010;6.508;2023-07-13T01:57:19;10.82;;;4.30;;
76332;SDS011;71254;53.010;6.508;2023-07-13T01:59:45;10.13;;;4.05;;
76332;SDS011;71254;53.010;6.508;2023-07-13T02:02:11;10.15;;;4.60;;
76332;SDS011;71254;53.010;6.508;2023-07-13T02:04:37;10.52;;;4.65;;
76332;SDS011;71254;53.010;6.508;2023-07-13T02:07:02;9.00;;;3.97;;
76332;SDS011;71254;53.010;6.508;2023-07-13T02:09:28;9.98;;;5.03;;
76332;SDS011;71254;53.010;6.508;2023-07-13T02:11:54;10.05;;;3.95;;
76332;SDS011;71254;53.010;6.508;2023-07-13T02:14:19;8.82;;;4.03;;
76332;SDS011;71254;53.010;6.508;2023-07-13T02:16:45;8.90;;;4.03;;
76332;SDS011;71254;53.010;6.508;2023-07-13T02:19:11;9.07;;;3.55;;
76332;SDS011;71254;53.010;6.508;2023-07-13T02:21:36;8.15;;;3.55;;
76332;SDS011;71254;53.010;6.508;2023-07-13T02:24:02;9.70;;;3.97;;
76332;SDS011;71254;53.010;6.508;2023-07-13T02:26:28;7.07;;;3.45;;
76332;SDS011;71254;53.010;6.508;2023-07-13T02:28:54;10.07;;;4.03;;
76332;SDS011;71254;53.010;6.508;2023-07-13T02:31:19;9.50;;;4.15;;
76332;SDS011;71254;53.010;6.508;2023-07-13T02:33:45;9.02;;;3.30;;
76332;SDS011;71254;53.010;6.508;2023-07-13T02:36:11;7.88;;;3.35;;
76332;SDS011;71254;53.010;6.508;2023-07-13T02:38:39;8.65;;;3.67;;
76332;SDS011;71254;53.010;6.508;2023-07-13T02:41:05;8.98;;;4.18;;
76332;SDS011;71254;53.010;6.508;2023-07-13T02:43:33;10.27;;;4.53;;
76332;SDS011;71254;53.010;6.508;2023-07-13T02:46:00;9.02;;;4.40;;
76332;SDS011;71254;53.010;6.508;2023-07-13T02:48:32;8.05;;;3.35;;
76332;SDS011;71254;53.010;6.508;2023-07-13T02:50:58;8.98;;;4.35;;
76332;SDS011;71254;53.010;6.508;2023-07-13T02:53:24;11.90;;;4.03;;
76332;SDS011;71254;53.010;6.508;2023-07-13T02:55:50;13.90;;;5.35;;
76332;SDS011;71254;53.010;6.508;2023-07-13T02:58:16;8.32;;;4.00;;
76332;SDS011;71254;53.010;6.508;2023-07-13T03:00:42;7.43;;;3.83;;
76332;SDS011;71254;53.010;6.508;2023-07-13T03:03:10;9.10;;;4.70;;
76332;SDS011;71254;53.010;6.508;2023-07-13T03:05:37;10.30;;;4.30;;
76332;SDS011;71254;53.010;6.508;2023-07-13T03:08:05;11.48;;;4.55;;
76332;SDS011;71254;53.010;6.508;2023-07-13T03:10:31;8.50;;;4.20;;
76332;SDS011;71254;53.010;6.508;2023-07-13T03:12:57;11.82;;;4.82;;
76332;SDS011;71254;53.010;6.508;2023-07-13T03:15:23;8.82;;;4.43;;
76332;SDS011;71254;53.010;6.508;2023-07-13T03:17:49;13.25;;;4.97;;
76332;SDS011;71254;53.010;6.508;2023-07-13T03:20:14;12.35;;;4.68;;
76332;SDS011;71254;53.010;6.508;2023-07-13T03:22:40;12.25;;;4.30;;
76332;SDS011;71254;53.010;6.508;2023-07-13T03:25:07;12.65;;;4.80;;
76332;SDS011;71254;53.010;6.508;2023-07-13T03:27:33;11.27;;;4.75;;
76332;SDS011;71254;53.010;6.508;2023-07-13T03:29:58;9.40;;;4.18;;
76332;SDS011;71254;53.010;6.508;2023-07-13T03:32:24;11.82;;;4.07;;
76332;SDS011;71254;53.010;6.508;2023-07-13T03:34:50;10.18;;;4.15;;
76332;SDS011;71254;53.010;6.508;2023-07-13T03:37:16;11.60;;;4.05;;
76332;SDS011;71254;53.010;6.508;2023-07-13T03:39:41;9.77;;;4.47;;
76332;SDS011;71254;53.010;6.508;2023-07-13T03:42:07;8.65;;;4.40;;
76332;SDS011;71254;53.010;6.508;2023-07-13T03:44:33;11.02;;;3.90;;
76332;SDS011;71254;53.010;6.508;2023-07-13T03:46:59;11.18;;;4.05;;
76332;SDS011;71254;53.010;6.508;2023-07-13T03:49:25;8.30;;;4.15;;
76332;SDS011;71254;53.010;6.508;2023-07-13T03:51:51;8.77;;;3.85;;
76332;SDS011;71254;53.010;6.508;2023-07-13T03:54:16;10.00;;;4.47;;
76332;SDS011;71254;53.010;6.508;2023-07-13T03:56:42;11.48;;;4.60;;
76332;SDS011;71254;53.010;6.508;2023-07-13T03:59:08;13.45;;;4.88;;
76332;SDS011;71254;53.010;6.508;2023-07-13T04:01:33;12.88;;;5.55;;
76332;SDS011;71254;53.010;6.508;2023-07-13T04:03:59;13.20;;;4.47;;
76332;SDS011;71254;53.010;6.508;2023-07-13T04:06:29;12.30;;;4.57;;
76332;SDS011;71254;53.010;6.508;2023-07-13T04:08:56;12.65;;;4.60;;
76332;SDS011;71254;53.010;6.508;2023-07-13T04:11:24;12.55;;;4.18;;
76332;SDS011;71254;53.010;6.508;2023-07-13T04:13:52;10.90;;;4.85;;
76332;SDS011;71254;53.010;6.508;2023-07-13T04:16:18;7.13;;;3.85;;
76332;SDS011;71254;53.010;6.508;2023-07-13T04:18:44;10.95;;;4.70;;
76332;SDS011;71254;53.010;6.508;2023-07-13T04:21:11;11.20;;;4.30;;
76332;SDS011;71254;53.010;6.508;2023-07-13T04:23:38;11.40;;;4.28;;
76332;SDS011;71254;53.010;6.508;2023-07-13T04:26:04;9.43;;;4.10;;
76332;SDS011;71254;53.010;6.508;2023-07-13T04:28:30;7.57;;;4.68;;
76332;SDS011;71254;53.010;6.508;2023-07-13T04:30:56;8.02;;;4.00;;
76332;SDS011;71254;53.010;6.508;2023-07-13T04:33:22;11.85;;;4.38;;
76332;SDS011;71254;53.010;6.508;2023-07-13T04:35:48;13.30;;;4.68;;
76332;SDS011;71254;53.010;6.508;2023-07-13T04:38:19;10.80;;;4.55;;
76332;SDS011;71254;53.010;6.508;2023-07-13T04:40:47;9.68;;;4.25;;
76332;SDS011;71254;53.010;6.508;2023-07-13T04:43:13;7.80;;;4.18;;
76332;SDS011;71254;53.010;6.508;2023-07-13T04:45:38;10.40;;;4.63;;
76332;SDS011;71254;53.010;6.508;2023-07-13T04:48:04;12.05;;;4.53;;
76332;SDS011;71254;53.010;6.508;2023-07-13T04:50:30;10.20;;;4.43;;
76332;SDS011;71254;53.010;6.508;2023-07-13T04:52:56;11.55;;;4.63;;
76332;SDS011;71254;53.010;6.508;2023-07-13T04:55:22;9.55;;;4.10;;
76332;SDS011;71254;53.010;6.508;2023-07-13T04:57:47;10.63;;;4.68;;
76332;SDS011;71254;53.010;6.508;2023-07-13T05:00:13;10.05;;;4.45;;
76332;SDS011;71254;53.010;6.508;2023-07-13T05:02:41;9.00;;;4.30;;
76332;SDS011;71254;53.010;6.508;2023-07-13T05:05:10;6.30;;;3.55;;
76332;SDS011;71254;53.010;6.508;2023-07-13T05:07:35;10.05;;;4.10;;
76332;SDS011;71254;53.010;6.508;2023-07-13T05:10:01;7.45;;;3.97;;
76332;SDS011;71254;53.010;6.508;2023-07-13T05:12:29;8.27;;;4.45;;
76332;SDS011;71254;53.010;6.508;2023-07-13T05:14:55;11.82;;;5.00;;
76332;SDS011;71254;53.010;6.508;2023-07-13T05:17:21;11.07;;;4.13;;
76332;SDS011;71254;53.010;6.508;2023-07-13T05:19:46;10.85;;;4.65;;
76332;SDS011;71254;53.010;6.508;2023-07-13T05:22:12;10.80;;;4.18;;
76332;SDS011;71254;53.010;6.508;2023-07-13T05:24:38;8.98;;;3.97;;
76332;SDS011;71254;53.010;6.508;2023-07-13T05:27:04;9.63;;;3.95;;
76332;SDS011;71254;53.010;6.508;2023-07-13T05:29:30;10.13;;;4.40;;
76332;SDS011;71254;53.010;6.508;2023-07-13T05:31:55;12.43;;;4.32;;
76332;SDS011;71254;53.010;6.508;2023-07-13T05:34:21;7.90;;;4.32;;
76332;SDS011;71254;53.010;6.508;2023-07-13T05:36:48;9.82;;;4.18;;
76332;SDS011;71254;53.010;6.508;2023-07-13T05:39:14;9.30;;;4.13;;
76332;SDS011;71254;53.010;6.508;2023-07-13T05:41:40;7.70;;;4.57;;
76332;SDS011;71254;53.010;6.508;2023-07-13T05:44:06;10.52;;;4.32;;
76332;SDS011;71254;53.010;6.508;2023-07-13T05:46:32;8.40;;;4.43;;
76332;SDS011;71254;53.010;6.508;2023-07-13T05:48:58;6.85;;;4.10;;
76332;SDS011;71254;53.010;6.508;2023-07-13T05:51:23;10.90;;;4.75;;
76332;SDS011;71254;53.010;6.508;2023-07-13T05:53:49;8.38;;;4.63;;
76332;SDS011;71254;53.010;6.508;2023-07-13T05:56:15;11.30;;;4.78;;
76332;SDS011;71254;53.010;6.508;2023-07-13T05:58:40;8.10;;;3.85;;
76332;SDS011;71254;53.010;6.508;2023-07-13T06:01:09;10.70;;;4.15;;
76332;SDS011;71254;53.010;6.508;2023-07-13T06:03:36;7.13;;;3.83;;
76332;SDS011;71254;53.010;6.508;2023-07-13T06:06:05;18.65;;;13.98;;
76332;SDS011;71254;53.010;6.508;2023-07-13T06:08:32;8.02;;;3.92;;
76332;SDS011;71254;53.010;6.508;2023-07-13T06:11:02;10.52;;;6.00;;
76332;SDS011;71254;53.010;6.508;2023-07-13T06:15:54;8.93;;;4.05;;
76332;SDS011;71254;53.010;6.508;2023-07-13T06:18:19;10.73;;;3.88;;
76332;SDS011;71254;53.010;6.508;2023-07-13T06:20:45;9.73;;;4.15;;
76332;SDS011;71254;53.010;6.508;2023-07-13T06:23:11;8.23;;;3.63;;
76332;SDS011;71254;53.010;6.508;2023-07-13T06:25:36;10.32;;;3.60;;
76332;SDS011;71254;53.010;6.508;2023-07-13T06:28:02;8.90;;;3.97;;
76332;SDS011;71254;53.010;6.508;2023-07-13T06:30:28;7.95;;;3.60;;
76332;SDS011;71254;53.010;6.508;2023-07-13T06:32:53;7.80;;;3.55;;
76332;SDS011;71254;53.010;6.508;2023-07-13T06:35:19;5.82;;;3.15;;
76332;SDS011;71254;53.010;6.508;2023-07-13T06:37:45;5.68;;;3.15;;
76332;SDS011;71254;53.010;6.508;2023-07-13T06:40:12;6.85;;;3.00;;
76332;SDS011;71254;53.010;6.508;2023-07-13T06:42:38;6.10;;;3.75;;
76332;SDS011;71254;53.010;6.508;2023-07-13T06:45:03;8.95;;;2.95;;
76332;SDS011;71254;53.010;6.508;2023-07-13T06:47:30;5.28;;;3.25;;
76332;SDS011;71254;53.010;6.508;2023-07-13T06:49:55;8.98;;;3.25;;
76332;SDS011;71254;53.010;6.508;2023-07-13T06:52:21;7.75;;;3.00;;
76332;SDS011;71254;53.010;6.508;2023-07-13T06:54:47;7.50;;;3.00;;
76332;SDS011;71254;53.010;6.508;2023-07-13T06:57:12;5.10;;;2.97;;
76332;SDS011;71254;53.010;6.508;2023-07-13T06:59:38;6.35;;;2.97;;
76332;SDS011;71254;53.010;6.508;2023-07-13T07:02:04;4.63;;;2.30;;
76332;SDS011;71254;53.010;6.508;2023-07-13T07:04:30;7.25;;;2.80;;
76332;SDS011;71254;53.010;6.508;2023-07-13T07:06:55;5.10;;;2.50;;
76332;SDS011;71254;53.010;6.508;2023-07-13T07:09:21;4.88;;;2.65;;
76332;SDS011;71254;53.010;6.508;2023-07-13T07:11:47;6.75;;;2.47;;
76332;SDS011;71254;53.010;6.508;2023-07-13T07:14:12;5.43;;;2.63;;
76332;SDS011;71254;53.010;6.508;2023-07-13T07:16:38;5.97;;;2.55;;
76332;SDS011;71254;53.010;6.508;2023-07-13T07:19:03;4.55;;;2.10;;
76332;SDS011;71254;53.010;6.508;2023-07-13T07:21:29;4.90;;;4.38;;
76332;SDS011;71254;53.010;6.508;2023-07-13T07:23:56;8.48;;;2.40;;
76332;SDS011;71254;53.010;6.508;2023-07-13T07:26:22;5.20;;;2.55;;
76332;SDS011;71254;53.010;6.508;2023-07-13T07:28:47;4.63;;;2.50;;
76332;SDS011;71254;53.010;6.508;2023-07-13T07:31:13;4.05;;;2.42;;
76332;SDS011;71254;53.010;6.508;2023-07-13T07:33:39;5.20;;;2.30;;
76332;SDS011;71254;53.010;6.508;2023-07-13T07:36:05;4.35;;;2.53;;
76332;SDS011;71254;53.010;6.508;2023-07-13T07:38:31;4.15;;;2.50;;
76332;SDS011;71254;53.010;6.508;2023-07-13T07:40:56;11.55;;;6.80;;
76332;SDS011;71254;53.010;6.508;2023-07-13T07:43:22;5.47;;;2.47;;
76332;SDS011;71254;53.010;6.508;2023-07-13T07:45:48;3.97;;;2.22;;
76332;SDS011;71254;53.010;6.508;2023-07-13T07:48:14;5.28;;;2.53;;
76332;SDS011;71254;53.010;6.508;2023-07-13T07:50:40;7.40;;;2.42;;
76332;SDS011;71254;53.010;6.508;2023-07-13T07:53:06;6.90;;;2.80;;
76332;SDS011;71254;53.010;6.508;2023-07-13T07:55:33;6.43;;;2.80;;
76332;SDS011;71254;53.010;6.508;2023-07-13T07:58:00;4.43;;;2.53;;
76332;SDS011;71254;53.010;6.508;2023-07-13T08:00:25;5.90;;;3.08;;
76332;SDS011;71254;53.010;6.508;2023-07-13T08:02:52;7.72;;;3.40;;
76332;SDS011;71254;53.010;6.508;2023-07-13T08:05:17;7.22;;;3.35;;
76332;SDS011;71254;53.010;6.508;2023-07-13T08:07:43;6.30;;;3.42;;
76332;SDS011;71254;53.010;6.508;2023-07-13T08:10:09;7.45;;;3.50;;
76332;SDS011;71254;53.010;6.508;2023-07-13T08:12:35;5.63;;;3.20;;
76332;SDS011;71254;53.010;6.508;2023-07-13T08:15:03;6.78;;;3.50;;
76332;SDS011;71254;53.010;6.508;2023-07-13T08:17:29;7.40;;;4.03;;
76332;SDS011;71254;53.010;6.508;2023-07-13T08:19:55;7.82;;;3.58;;
76332;SDS011;71254;53.010;6.508;2023-07-13T08:22:21;6.13;;;3.50;;
76332;SDS011;71254;53.010;6.508;2023-07-13T08:24:46;6.28;;;3.50;;
76332;SDS011;71254;53.010;6.508;2023-07-13T08:27:20;8.52;;;2.97;;
76332;SDS011;71254;53.010;6.508;2023-07-13T08:29:47;7.90;;;3.25;;
76332;SDS011;71254;53.010;6.508;2023-07-13T08:32:12;8.30;;;3.60;;
76332;SDS011;71254;53.010;6.508;2023-07-13T08:34:39;6.28;;;3.13;;
76332;SDS011;71254;53.010;6.508;2023-07-13T08:37:05;6.28;;;3.65;;
76332;SDS011;71254;53.010;6.508;2023-07-13T08:39:31;7.20;;;3.42;;
76332;SDS011;71254;53.010;6.508;2023-07-13T08:42:00;7.40;;;3.17;;
76332;SDS011;71254;53.010;6.508;2023-07-13T08:44:57;7.60;;;2.90;;
76332;SDS011;71254;53.010;6.508;2023-07-13T08:47:38;2.72;;;2.53;;
76332;SDS011;71254;53.010;6.508;2023-07-13T08:50:10;7.30;;;2.95;;
76332;SDS011;71254;53.010;6.508;2023-07-13T08:52:39;6.55;;;2.80;;
76332;SDS011;71254;53.010;6.508;2023-07-13T08:57:41;4.00;;;2.53;;
76332;SDS011;71254;53.010;6.508;2023-07-13T09:00:10;4.03;;;2.70;;
76332;SDS011;71254;53.010;6.508;2023-07-13T09:02:58;3.97;;;2.63;;
76332;SDS011;71254;53.010;6.508;2023-07-13T09:05:33;3.75;;;2.80;;
76332;SDS011;71254;53.010;6.508;2023-07-13T09:11:00;4.40;;;2.95;;
76332;SDS011;71254;53.010;6.508;2023-07-13T09:16:22;5.13;;;3.53;;
76332;SDS011;71254;53.010;6.508;2023-07-13T09:18:53;4.47;;;3.72;;
76332;SDS011;71254;53.010;6.508;2023-07-13T09:21:34;4.13;;;3.05;;
76332;SDS011;71254;53.010;6.508;2023-07-13T09:26:55;5.78;;;3.50;;
76332;SDS011;71254;53.010;6.508;2023-07-13T09:29:32;5.97;;;3.45;;
76332;SDS011;71254;53.010;6.508;2023-07-13T09:32:03;4.43;;;3.25;;
76332;SDS011;71254;53.010;6.508;2023-07-13T09:34:33;3.83;;;3.47;;
76332;SDS011;71254;53.010;6.508;2023-07-13T09:36:59;4.53;;;3.63;;
76332;SDS011;71254;53.010;6.508;2023-07-13T09:39:26;7.13;;;3.90;;
76332;SDS011;71254;53.010;6.508;2023-07-13T09:47:02;4.85;;;3.92;;
76332;SDS011;71254;53.010;6.508;2023-07-13T09:49:29;4.68;;;4.20;;
76332;SDS011;71254;53.010;6.508;2023-07-13T09:52:00;4.22;;;3.35;;
76332;SDS011;71254;53.010;6.508;2023-07-13T09:54:28;4.88;;;3.67;;
76332;SDS011;71254;53.010;6.508;2023-07-13T09:56:58;4.85;;;3.35;;
76332;SDS011;71254;53.010;6.508;2023-07-13T09:59:33;7.20;;;3.42;;
76332;SDS011;71254;53.010;6.508;2023-07-13T10:01:59;5.05;;;3.22;;
76332;SDS011;71254;53.010;6.508;2023-07-13T10:04:30;3.10;;;2.80;;
76332;SDS011;71254;53.010;6.508;2023-07-13T10:07:04;3.30;;;3.00;;
76332;SDS011;71254;53.010;6.508;2023-07-13T10:09:36;4.60;;;3.10;;
76332;SDS011;71254;53.010;6.508;2023-07-13T10:12:02;4.63;;;3.58;;
76332;SDS011;71254;53.010;6.508;2023-07-13T10:14:29;9.85;;;4.80;;
76332;SDS011;71254;53.010;6.508;2023-07-13T10:17:00;5.55;;;3.92;;
76332;SDS011;71254;53.010;6.508;2023-07-13T10:19:29;8.30;;;4.03;;
76332;SDS011;71254;53.010;6.508;2023-07-13T10:22:21;9.23;;;5.10;;
76332;SDS011;71254;53.010;6.508;2023-07-13T10:24:49;5.32;;;4.50;;
76332;SDS011;71254;53.010;6.508;2023-07-13T10:27:18;5.47;;;4.47;;
76332;SDS011;71254;53.010;6.508;2023-07-13T10:32:14;4.37;;;3.97;;
76332;SDS011;71254;53.010;6.508;2023-07-13T10:34:41;7.28;;;4.18;;
76332;SDS011;71254;53.010;6.508;2023-07-13T10:37:24;4.60;;;4.20;;
76332;SDS011;71254;53.010;6.508;2023-07-13T10:39:53;7.30;;;5.18;;
76332;SDS011;71254;53.010;6.508;2023-07-13T10:42:28;5.93;;;4.75;;
76332;SDS011;71254;53.010;6.508;2023-07-13T10:44:57;4.35;;;3.95;;
76332;SDS011;71254;53.010;6.508;2023-07-13T10:47:23;4.68;;;3.75;;
76332;SDS011;71254;53.010;6.508;2023-07-13T10:49:50;5.28;;;3.85;;
76332;SDS011;71254;53.010;6.508;2023-07-13T10:55:04;4.28;;;2.72;;
76332;SDS011;71254;53.010;6.508;2023-07-13T10:57:31;3.33;;;2.63;;
76332;SDS011;71254;53.010;6.508;2023-07-13T11:02:41;4.90;;;3.00;;
76332;SDS011;71254;53.010;6.508;2023-07-13T11:07:55;4.15;;;2.20;;
76332;SDS011;71254;53.010;6.508;2023-07-13T11:18:48;3.20;;;2.25;;
76332;SDS011;71254;53.010;6.508;2023-07-13T11:21:32;5.45;;;1.88;;
76332;SDS011;71254;53.010;6.508;2023-07-13T11:24:02;4.95;;;1.83;;
76332;SDS011;71254;53.010;6.508;2023-07-13T11:26:52;4.60;;;2.20;;
76332;SDS011;71254;53.010;6.508;2023-07-13T11:31:54;4.75;;;2.28;;
76332;SDS011;71254;53.010;6.508;2023-07-13T11:37:01;3.08;;;1.88;;
76332;SDS011;71254;53.010;6.508;2023-07-13T11:39:31;2.28;;;1.90;;
76332;SDS011;71254;53.010;6.508;2023-07-13T11:42:00;3.05;;;1.90;;
76332;SDS011;71254;53.010;6.508;2023-07-13T11:46:59;3.63;;;1.50;;
76332;SDS011;71254;53.010;6.508;2023-07-13T11:49:40;2.40;;;2.10;;
76332;SDS011;71254;53.010;6.508;2023-07-13T11:52:12;5.20;;;1.88;;
76332;SDS011;71254;53.010;6.508;2023-07-13T11:54:56;4.03;;;1.70;;
76332;SDS011;71254;53.010;6.508;2023-07-13T11:59:53;3.13;;;1.90;;
76332;SDS011;71254;53.010;6.508;2023-07-13T12:02:31;3.30;;;1.70;;
76332;SDS011;71254;53.010;6.508;2023-07-13T12:04:59;2.95;;;1.63;;
76332;SDS011;71254;53.010;6.508;2023-07-13T12:07:28;1.65;;;1.42;;
76332;SDS011;71254;53.010;6.508;2023-07-13T12:12:34;3.63;;;1.60;;
76332;SDS011;71254;53.010;6.508;2023-07-13T12:15:05;2.53;;;1.90;;
76332;SDS011;71254;53.010;6.508;2023-07-13T12:17:34;3.58;;;1.75;;
76332;SDS011;71254;53.010;6.508;2023-07-13T12:20:00;2.90;;;1.63;;
76332;SDS011;71254;53.010;6.508;2023-07-13T12:22:33;4.22;;;1.58;;
76332;SDS011;71254;53.010;6.508;2023-07-13T12:24:59;4.13;;;1.80;;
76332;SDS011;71254;53.010;6.508;2023-07-13T12:27:26;3.10;;;1.30;;
76332;SDS011;71254;53.010;6.508;2023-07-13T12:30:03;4.18;;;1.60;;
76332;SDS011;71254;53.010;6.508;2023-07-13T12:32:31;2.55;;;1.35;;
76332;SDS011;71254;53.010;6.508;2023-07-13T12:35:16;3.17;;;1.50;;
76332;SDS011;71254;53.010;6.508;2023-07-13T12:37:44;3.53;;;1.58;;
76332;SDS011;71254;53.010;6.508;2023-07-13T12:40:15;3.78;;;1.70;;
76332;SDS011;71254;53.010;6.508;2023-07-13T12:42:45;4.50;;;1.50;;
76332;SDS011;71254;53.010;6.508;2023-07-13T12:47:47;3.55;;;1.83;;
76332;SDS011;71254;53.010;6.508;2023-07-13T12:50:16;2.67;;;1.60;;
76332;SDS011;71254;53.010;6.508;2023-07-13T12:55:14;3.30;;;1.65;;
76332;SDS011;71254;53.010;6.508;2023-07-13T12:57:45;2.95;;;1.25;;
76332;SDS011;71254;53.010;6.508;2023-07-13T13:00:21;3.13;;;1.27;;
76332;SDS011;71254;53.010;6.508;2023-07-13T13:02:53;3.65;;;1.40;;
76332;SDS011;71254;53.010;6.508;2023-07-13T13:05:21;2.33;;;1.50;;
76332;SDS011;71254;53.010;6.508;2023-07-13T13:07:49;3.85;;;1.70;;
76332;SDS011;71254;53.010;6.508;2023-07-13T13:10:15;2.78;;;1.50;;
76332;SDS011;71254;53.010;6.508;2023-07-13T13:12:41;2.10;;;1.65;;
76332;SDS011;71254;53.010;6.508;2023-07-13T13:15:10;2.35;;;1.50;;
76332;SDS011;71254;53.010;6.508;2023-07-13T13:17:37;2.05;;;1.45;;
76332;SDS011;71254;53.010;6.508;2023-07-13T13:20:16;3.65;;;1.77;;
76332;SDS011;71254;53.010;6.508;2023-07-13T13:22:46;2.70;;;1.77;;
76332;SDS011;71254;53.010;6.508;2023-07-13T13:25:12;4.60;;;1.65;;
76332;SDS011;71254;53.010;6.508;2023-07-13T13:27:40;3.47;;;1.38;;
76332;SDS011;71254;53.010;6.508;2023-07-13T13:30:14;3.60;;;1.77;;
76332;SDS011;71254;53.010;6.508;2023-07-13T13:32:42;1.70;;;1.55;;
76332;SDS011;71254;53.010;6.508;2023-07-13T13:35:17;4.70;;;1.67;;
76332;SDS011;71254;53.010;6.508;2023-07-13T13:37:44;4.25;;;1.60;;
76332;SDS011;71254;53.010;6.508;2023-07-13T13:40:16;1.92;;;1.48;;
76332;SDS011;71254;53.010;6.508;2023-07-13T13:42:44;3.05;;;1.48;;
76332;SDS011;71254;53.010;6.508;2023-07-13T13:45:10;3.10;;;1.52;;
76332;SDS011;71254;53.010;6.508;2023-07-13T13:47:37;1.20;;;1.10;;
76332;SDS011;71254;53.010;6.508;2023-07-13T13:50:14;3.33;;;1.90;;
76332;SDS011;71254;53.010;6.508;2023-07-13T13:52:42;3.20;;;1.50;;
76332;SDS011;71254;53.010;6.508;2023-07-13T13:55:15;2.65;;;1.45;;
76332;SDS011;71254;53.010;6.508;2023-07-13T13:57:44;2.78;;;1.20;;
76332;SDS011;71254;53.010;6.508;2023-07-13T14:00:11;1.52;;;1.20;;
76332;SDS011;71254;53.010;6.508;2023-07-13T14:02:39;1.73;;;1.10;;
76332;SDS011;71254;53.010;6.508;2023-07-13T14:05:11;1.73;;;1.30;;
76332;SDS011;71254;53.010;6.508;2023-07-13T14:07:38;2.42;;;1.33;;
76332;SDS011;71254;53.010;6.508;2023-07-13T14:10:08;4.05;;;1.50;;
76332;SDS011;71254;53.010;6.508;2023-07-13T14:12:39;3.40;;;1.35;;
76332;SDS011;71254;53.010;6.508;2023-07-13T14:15:08;2.83;;;1.63;;
76332;SDS011;71254;53.010;6.508;2023-07-13T14:17:45;1.88;;;1.70;;
76332;SDS011;71254;53.010;6.508;2023-07-13T14:20:11;1.50;;;1.20;;
76332;SDS011;71254;53.010;6.508;2023-07-13T14:22:37;2.83;;;1.45;;
76332;SDS011;71254;53.010;6.508;2023-07-13T14:25:03;2.53;;;1.45;;
76332;SDS011;71254;53.010;6.508;2023-07-13T14:27:29;3.83;;;1.63;;
76332;SDS011;71254;53.010;6.508;2023-07-13T14:29:55;2.58;;;1.40;;
76332;SDS011;71254;53.010;6.508;2023-07-13T14:32:20;2.35;;;1.60;;
76332;SDS011;71254;53.010;6.508;2023-07-13T14:34:46;2.38;;;1.42;;
76332;SDS011;71254;53.010;6.508;2023-07-13T14:37:13;3.53;;;1.63;;
76332;SDS011;71254;53.010;6.508;2023-07-13T14:39:42;3.10;;;1.50;;
76332;SDS011;71254;53.010;6.508;2023-07-13T14:42:09;4.47;;;1.83;;
76332;SDS011;71254;53.010;6.508;2023-07-13T14:44:35;2.33;;;1.48;;
76332;SDS011;71254;53.010;6.508;2023-07-13T14:47:03;5.38;;;1.75;;
76332;SDS011;71254;53.010;6.508;2023-07-13T14:49:32;2.53;;;1.63;;
76332;SDS011;71254;53.010;6.508;2023-07-13T14:52:13;2.63;;;1.50;;
76332;SDS011;71254;53.010;6.508;2023-07-13T14:54:47;2.63;;;1.33;;
76332;SDS011;71254;53.010;6.508;2023-07-13T14:57:14;1.73;;;1.35;;
76332;SDS011;71254;53.010;6.508;2023-07-13T14:59:44;3.47;;;1.60;;
76332;SDS011;71254;53.010;6.508;2023-07-13T15:04:54;2.92;;;1.60;;
76332;SDS011;71254;53.010;6.508;2023-07-13T15:07:20;4.13;;;1.50;;
76332;SDS011;71254;53.010;6.508;2023-07-13T15:09:47;3.10;;;1.35;;
76332;SDS011;71254;53.010;6.508;2023-07-13T15:12:13;4.28;;;1.50;;
76332;SDS011;71254;53.010;6.508;2023-07-13T15:14:39;3.63;;;1.70;;
76332;SDS011;71254;53.010;6.508;2023-07-13T15:17:08;4.10;;;1.60;;
76332;SDS011;71254;53.010;6.508;2023-07-13T15:19:57;3.30;;;1.65;;
76332;SDS011;71254;53.010;6.508;2023-07-13T15:22:24;3.72;;;1.70;;
76332;SDS011;71254;53.010;6.508;2023-07-13T15:24:49;3.95;;;1.80;;
76332;SDS011;71254;53.010;6.508;2023-07-13T15:27:15;7.35;;;2.10;;
76332;SDS011;71254;53.010;6.508;2023-07-13T15:29:41;4.25;;;2.00;;
76332;SDS011;71254;53.010;6.508;2023-07-13T15:32:12;2.80;;;1.60;;
76332;SDS011;71254;53.010;6.508;2023-07-13T15:34:39;3.53;;;1.75;;
76332;SDS011;71254;53.010;6.508;2023-07-13T15:37:24;4.65;;;1.85;;
76332;SDS011;71254;53.010;6.508;2023-07-13T15:39:49;5.45;;;2.25;;
76332;SDS011;71254;53.010;6.508;2023-07-13T15:42:18;3.50;;;1.77;;
76332;SDS011;71254;53.010;6.508;2023-07-13T15:44:45;3.42;;;2.10;;
76332;SDS011;71254;53.010;6.508;2023-07-13T15:47:11;3.08;;;1.70;;
76332;SDS011;71254;53.010;6.508;2023-07-13T15:49:39;4.78;;;2.70;;
76332;SDS011;71254;53.010;6.508;2023-07-13T15:52:19;5.03;;;2.10;;
76332;SDS011;71254;53.010;6.508;2023-07-13T15:54:48;5.05;;;2.00;;